Unicom:                    122.8

AWOS:                  118.275

Elevation           1458’ MSL

TPA:                   2500’ MSL

06/24:         5003’ L   75’ W

PAPI:       06/Left     24/Left

(Operate lights on unicom freq.)

Traffic Pattern: Left

Beacon: Sunset to Sunrise

Windsock: yes, lighted

Segmented Circle: No

 

Cleveland Center: 126.72/291.65

FSS: Altoona

[Source: ADDS]
METAR
KFKL 182356Z AUTO 30004KT 7SM -SN OVC017 M08/M10 A3031 RMK AO2 SLP291 P0000 60000 T10781100 11050 21078 53029 FZRANO =
KFKL 182325Z 1900/1924 30007KT P6SM -SHSN OVC020 TEMPO 1900/1902 3SM -SHSN OVC015 FM190300 31006KT P6SM BKN040 FM190700 32005KT P6SM SCT250
TAF
KFKL 182325Z 1900/1924 30007KT P6SM -SHSN OVC020 TEMPO 1900/1902 3SM -SHSN OVC015 FM190300 31006KT P6SM BKN040 FM190700 32005KT P6SM SCT250 =
[Source: ADDS]
METAR
KDUJ 182353Z AUTO 29010KT 4SM -SN FEW013 OVC022 M07/M10 A3024 RMK AO2 SLP264 P0000 60000 T10671100 11044 21067 53031 $ =
KDUJ 182325Z 1900/1924 30009KT P6SM -SHSN OVC025 TEMPO 1900/1902 2SM -SHSN OVC015 FM190300 30008KT P6SM BKN035 FM190600 30007KT P6SM BKN090 FM191200 30005KT P6SM SCT250
TAF
KDUJ 182325Z 1900/1924 30009KT P6SM -SHSN OVC025 TEMPO 1900/1902 2SM -SHSN OVC015 FM190300 30008KT P6SM BKN035 FM190600 30007KT P6SM BKN090 FM191200 30005KT P6SM SCT250 =

Welcome to Clarion County Airport.

We look forward to serving all of your aviation needs.


Clarion County Airport is a General Aviation, Business Class airport serving the Clarion County Area in Central Western Pennsylvania.  Our 5,003' asphalt runway and gps approaches are capable of serving most of the general aviation fleet in most weather conditions.


If you are planning a fuel stop while flying in Western Pennsylvania, consider paying us a visit. Our prices are some of the lowest in the state Check prices here ----> www.airnav.com/fuel and enter identifier KAXQ or see current prices below. We can have you fueled and taxiing out to the runway in about 10 minutes. Our current hours of operation are Monday- Saturday 8:00AM-4:00PM. The FBO building will be closed on Sundays until March 1st, 2019. Holiday closures are Christmas Day and Thanksgiving. If you require use of the facilities during the holidays or after hours please call ahead and someone will be there to assist you.


- Airport Manager -  


                             CURRENT FUEL PRICES AS OF 1/4/19      JET-A w/additive    $3.79               100LL     $4.65 CC   Cash $4.52


                              Self Service fueling available 24/7, credit card reader enabled. Center point fueling available upon request.

                                                           For after hours fueling assistance please contact 814-282-6001.